createdAt,value
2016-08-07T00:00:44.569Z,0
2016-08-07T00:01:44.605Z,0
2016-08-07T00:02:43.840Z,0
2016-08-07T00:03:45.232Z,0
2016-08-07T00:04:43.094Z,0
2016-08-07T00:05:43.093Z,0
2016-08-07T00:06:44.520Z,0
2016-08-07T00:08:44.468Z,0
2016-08-07T00:09:44.454Z,0
2016-08-07T00:10:44.441Z,0
2016-08-07T00:11:43.738Z,0
2016-08-07T00:12:44.426Z,0
2016-08-07T00:13:45.129Z,0
2016-08-07T00:14:43.692Z,0
2016-08-07T00:15:43.680Z,0
2016-08-07T00:16:42.965Z,0
2016-08-07T00:17:44.369Z,0
2016-08-07T00:18:45.061Z,0
2016-08-07T00:20:44.386Z,0
2016-08-07T00:21:45.048Z,0
2016-08-07T00:22:44.332Z,0
2016-08-07T00:23:43.596Z,0
2016-08-07T00:24:45.707Z,0
2016-08-07T00:25:42.861Z,0
2016-08-07T00:26:44.269Z,0
2016-08-07T00:27:42.854Z,0
2016-08-07T00:28:42.830Z,0
2016-08-07T00:29:43.530Z,0
2016-08-07T00:30:44.227Z,0
2016-08-07T00:31:43.508Z,0
2016-08-07T00:32:43.512Z,0
2016-08-07T00:33:42.776Z,0
2016-08-07T00:34:43.526Z,0
2016-08-07T00:35:43.516Z,0
2016-08-07T00:36:42.746Z,0
2016-08-07T00:37:43.440Z,0
2016-08-07T00:38:44.156Z,0
2016-08-07T00:39:44.832Z,0
2016-08-07T00:40:44.832Z,0
2016-08-07T00:41:43.396Z,0
2016-08-07T00:42:44.801Z,0
2016-08-07T00:43:43.417Z,0
2016-08-07T00:44:44.777Z,0
2016-08-07T00:45:42.658Z,0
2016-08-07T00:46:44.145Z,0
2016-08-07T00:47:42.626Z,0
2016-08-07T00:48:42.618Z,0
2016-08-07T00:49:42.599Z,0
2016-08-07T00:50:44.003Z,0
2016-08-07T00:51:45.912Z,0
2016-08-07T00:52:43.980Z,0
2016-08-07T00:53:42.566Z,0
2016-08-07T00:54:44.671Z,0
2016-08-07T00:55:43.247Z,0
2016-08-07T00:56:43.235Z,0
2016-08-07T00:57:43.267Z,0
2016-08-07T00:58:43.202Z,0
2016-08-07T00:59:43.203Z,0
2016-08-07T01:00:43.609Z,0
2016-08-07T01:01:43.886Z,0
2016-08-07T01:02:44.654Z,0
2016-08-07T01:03:43.859Z,0
2016-08-07T01:04:44.554Z,0
2016-08-07T01:05:44.548Z,0
2016-08-07T01:06:43.842Z,0
2016-08-07T01:07:42.398Z,0
2016-08-07T01:08:43.094Z,0
2016-08-07T01:09:44.537Z,0
2016-08-07T01:10:43.781Z,0
2016-08-07T01:11:43.064Z,0
2016-08-07T01:12:43.778Z,0
2016-08-07T01:13:43.042Z,0
2016-08-07T01:14:42.319Z,0
2016-08-07T01:15:44.431Z,0
2016-08-07T01:16:44.441Z,0
2016-08-07T01:17:44.407Z,0
2016-08-07T01:18:43.941Z,0
2016-08-07T01:19:43.069Z,0
2016-08-07T01:20:42.953Z,0
2016-08-07T01:21:43.661Z,0
2016-08-07T01:22:43.664Z,0
2016-08-07T01:23:42.225Z,0
2016-08-07T01:24:43.620Z,0
2016-08-07T01:25:43.610Z,0
2016-08-07T01:26:45.021Z,0
2016-08-07T01:27:43.586Z,0
2016-08-07T01:28:42.878Z,0
2016-08-07T01:29:44.277Z,0
2016-08-07T01:30:42.848Z,0
2016-08-07T01:31:42.843Z,0
2016-08-07T01:32:43.539Z,0
2016-08-07T01:33:43.517Z,0
2016-08-07T01:34:44.222Z,0
2016-08-07T01:35:42.094Z,0
2016-08-07T01:36:44.409Z,0
2016-08-07T01:37:44.185Z,0
2016-08-07T01:38:42.759Z,0
2016-08-07T01:39:42.754Z,0
2016-08-07T01:40:42.027Z,0
2016-08-07T01:41:42.013Z,0
2016-08-07T01:42:43.415Z,0
2016-08-07T01:43:42.706Z,0
2016-08-07T01:44:44.105Z,0
2016-08-07T01:45:43.398Z,0
2016-08-07T01:46:41.958Z,0
2016-08-07T01:47:41.959Z,0
2016-08-07T01:48:44.058Z,0
2016-08-07T01:49:41.928Z,0
2016-08-07T01:50:43.327Z,0
2016-08-07T01:51:42.607Z,0
2016-08-07T01:52:41.891Z,0
2016-08-07T01:53:43.305Z,0
2016-08-07T01:54:41.883Z,0
2016-08-07T01:55:42.568Z,0
2016-08-07T01:56:44.677Z,0
2016-08-07T01:57:42.636Z,0
2016-08-07T01:58:41.827Z,0
2016-08-07T01:59:43.443Z,0
2016-08-07T02:00:43.928Z,0
2016-08-07T02:01:43.217Z,0
2016-08-07T02:02:43.956Z,0
2016-08-07T02:03:43.925Z,0
2016-08-07T02:04:43.884Z,0
2016-08-07T02:05:43.559Z,0
2016-08-07T02:06:42.444Z,0
2016-08-07T02:07:45.645Z,0
2016-08-07T02:08:43.147Z,0
2016-08-07T02:09:41.773Z,0
2016-08-07T02:10:43.255Z,0
2016-08-07T02:11:43.203Z,0
2016-08-07T02:12:42.379Z,0
2016-08-07T02:13:41.649Z,0
2016-08-07T02:14:43.776Z,0
2016-08-07T02:15:43.905Z,0
2016-08-07T02:16:43.892Z,0
2016-08-07T02:17:42.323Z,0
2016-08-07T02:18:41.591Z,0
2016-08-07T02:19:42.331Z,0
2016-08-07T02:20:42.978Z,0
2016-08-07T02:21:42.973Z,0
2016-08-07T02:22:41.546Z,0
2016-08-07T02:23:42.247Z,0
2016-08-07T02:24:42.281Z,0
2016-08-07T02:25:43.014Z,0
2016-08-07T02:26:42.922Z,0
2016-08-07T02:27:42.899Z,0
2016-08-07T02:28:42.893Z,0
2016-08-07T02:29:41.497Z,0
2016-08-07T02:30:42.254Z,0
2016-08-07T02:31:42.148Z,0
2016-08-07T02:32:42.843Z,0
2016-08-07T02:33:42.837Z,0
2016-08-07T02:34:41.414Z,0
2016-08-07T02:35:42.810Z,0
2016-08-07T02:36:42.803Z,0
2016-08-07T02:37:43.527Z,0
2016-08-07T02:38:42.071Z,0
2016-08-07T02:39:42.926Z,0
2016-08-07T02:40:42.766Z,0
2016-08-07T02:41:42.047Z,0
2016-08-07T02:42:43.465Z,0
2016-08-07T02:43:41.317Z,0
2016-08-07T02:44:42.709Z,0
2016-08-07T02:45:42.696Z,0
2016-08-07T02:46:42.192Z,0
2016-08-07T02:47:41.975Z,0
2016-08-07T02:48:41.241Z,0
2016-08-07T02:49:41.963Z,0
2016-08-07T02:50:42.638Z,0
2016-08-07T02:51:41.927Z,0
2016-08-07T02:52:41.911Z,0
2016-08-07T02:53:42.595Z,0
2016-08-07T02:54:41.285Z,0
2016-08-07T02:55:41.889Z,0
2016-08-07T02:56:41.869Z,0
2016-08-07T02:57:42.602Z,0
2016-08-07T02:58:42.556Z,0
2016-08-07T02:59:41.831Z,0
2016-08-07T03:00:42.719Z,0
2016-08-07T03:01:41.800Z,0
2016-08-07T03:02:42.500Z,0
2016-08-07T03:03:44.786Z,0
2016-08-07T03:04:41.815Z,0
2016-08-07T03:05:42.465Z,0
2016-08-07T03:06:41.731Z,0
2016-08-07T03:07:41.027Z,0
2016-08-07T03:08:43.916Z,0
2016-08-07T03:09:42.418Z,0
2016-08-07T03:10:41.696Z,0
2016-08-07T03:11:41.698Z,0
2016-08-07T03:12:41.779Z,0
2016-08-07T03:13:43.074Z,0
2016-08-07T03:14:41.664Z,0
2016-08-07T03:15:41.640Z,0
2016-08-07T03:16:43.071Z,0
2016-08-07T03:17:42.330Z,0
2016-08-07T03:18:41.606Z,0
2016-08-07T03:19:41.610Z,0
2016-08-07T03:20:42.295Z,0
2016-08-07T03:21:41.557Z,0
2016-08-07T03:22:41.552Z,0
2016-08-07T03:23:41.538Z,0
2016-08-07T03:24:41.570Z,0
2016-08-07T03:25:42.231Z,0
2016-08-07T03:26:42.234Z,0
2016-08-07T03:27:43.669Z,0
2016-08-07T03:28:41.492Z,0
2016-08-07T03:29:42.886Z,0
2016-08-07T03:30:41.463Z,0
2016-08-07T03:31:42.866Z,0
2016-08-07T03:32:40.836Z,0
2016-08-07T03:33:42.144Z,0
2016-08-07T03:34:42.152Z,0
2016-08-07T03:35:42.902Z,0
2016-08-07T03:36:40.729Z,0
2016-08-07T03:37:40.726Z,0
2016-08-07T03:38:42.082Z,0
2016-08-07T03:39:40.649Z,0
2016-08-07T03:40:42.843Z,0
2016-08-07T03:41:42.746Z,0
2016-08-07T03:42:42.732Z,0
2016-08-07T03:43:42.012Z,0
2016-08-07T03:44:41.294Z,0
2016-08-07T03:45:41.286Z,0
2016-08-07T03:46:41.270Z,0
2016-08-07T03:47:41.255Z,0
2016-08-07T03:48:42.722Z,0
2016-08-07T03:49:41.261Z,0
2016-08-07T03:50:41.947Z,0
2016-08-07T03:51:40.467Z,0
2016-08-07T03:52:40.502Z,0
2016-08-07T03:53:40.510Z,0
2016-08-07T03:54:41.218Z,0
2016-08-07T03:55:41.870Z,0
2016-08-07T03:56:41.863Z,0
2016-08-07T03:57:41.856Z,0
2016-08-07T03:58:41.134Z,0
2016-08-07T03:59:42.560Z,0
2016-08-07T04:00:41.812Z,0
2016-08-07T04:01:42.569Z,0
2016-08-07T04:02:41.080Z,0
2016-08-07T04:03:41.068Z,5
2016-08-07T04:04:41.071Z,5
2016-08-07T04:05:42.463Z,5
2016-08-07T04:07:41.787Z,5
2016-08-07T04:08:41.722Z,5
2016-08-07T04:09:41.715Z,5
2016-08-07T04:10:40.996Z,5
2016-08-07T04:11:40.975Z,5
2016-08-07T04:12:40.972Z,5
2016-08-07T04:13:40.952Z,10
2016-08-07T04:14:40.941Z,10
2016-08-07T04:15:41.776Z,10
2016-08-07T04:16:40.962Z,10
2016-08-07T04:17:41.610Z,10
2016-08-07T04:18:40.181Z,10
2016-08-07T04:19:40.195Z,10
2016-08-07T04:20:40.920Z,10
2016-08-07T04:21:40.864Z,10
2016-08-07T04:22:41.555Z,15
2016-08-07T04:23:42.251Z,15
2016-08-07T04:24:41.533Z,15
2016-08-07T04:25:41.514Z,15
2016-08-07T04:26:40.802Z,15
2016-08-07T04:27:40.839Z,15
2016-08-07T04:28:41.486Z,15
2016-08-07T04:29:42.208Z,15
2016-08-07T04:30:41.452Z,20
2016-08-07T04:31:40.729Z,20
2016-08-07T04:32:40.729Z,20
2016-08-07T04:33:40.017Z,20
2016-08-07T04:34:40.044Z,20
2016-08-07T04:35:41.417Z,20
2016-08-07T04:36:40.678Z,20
2016-08-07T04:37:40.664Z,20
2016-08-07T04:38:40.658Z,20
2016-08-07T04:39:41.355Z,25
2016-08-07T04:40:42.054Z,25
2016-08-07T04:41:42.028Z,25
2016-08-07T04:42:40.609Z,25
2016-08-07T04:43:42.013Z,25
2016-08-07T04:44:40.580Z,25
2016-08-07T04:45:40.572Z,25
2016-08-07T04:46:39.928Z,25
2016-08-07T04:47:39.855Z,30
2016-08-07T04:48:42.747Z,30
2016-08-07T04:49:40.523Z,30
2016-08-07T04:50:40.785Z,30
2016-08-07T04:51:41.211Z,30
2016-08-07T04:52:41.898Z,30
2016-08-07T04:53:40.536Z,30
2016-08-07T04:54:41.187Z,30
2016-08-07T04:55:40.470Z,30
2016-08-07T04:56:40.453Z,30
2016-08-07T04:57:40.424Z,35
2016-08-07T04:58:41.156Z,35
2016-08-07T04:59:40.420Z,35
2016-08-07T05:00:39.704Z,35
2016-08-07T05:01:41.320Z,35
2016-08-07T05:02:41.810Z,35
2016-08-07T05:03:41.783Z,35
2016-08-07T05:04:40.373Z,35
2016-08-07T05:05:41.042Z,35
2016-08-07T05:06:39.624Z,40
2016-08-07T05:07:41.029Z,40
2016-08-07T05:08:39.600Z,40
2016-08-07T05:09:40.286Z,40
2016-08-07T05:10:40.980Z,40
2016-08-07T05:11:40.284Z,40
2016-08-07T05:12:41.670Z,40
2016-08-07T05:13:40.239Z,40
2016-08-07T05:14:40.266Z,40
2016-08-07T05:15:40.927Z,40
2016-08-07T05:16:40.205Z,40
2016-08-07T05:17:41.762Z,45
2016-08-07T05:18:39.575Z,45
2016-08-07T05:19:40.181Z,45
2016-08-07T05:20:39.456Z,45
2016-08-07T05:21:39.482Z,45
2016-08-07T05:22:40.139Z,45
2016-08-07T05:23:40.130Z,45
2016-08-07T05:24:42.849Z,45
2016-08-07T05:25:41.527Z,45
2016-08-07T05:26:40.798Z,45
2016-08-07T05:27:40.098Z,45
2016-08-07T05:28:40.812Z,50
2016-08-07T05:29:40.787Z,50
2016-08-07T05:30:40.053Z,50
2016-08-07T05:31:40.034Z,50
2016-08-07T05:32:40.027Z,50
2016-08-07T05:33:40.723Z,50
2016-08-07T05:34:40.008Z,50
2016-08-07T05:35:40.711Z,50
2016-08-07T05:36:39.983Z,50
2016-08-07T05:37:40.044Z,50
2016-08-07T05:38:41.389Z,50
2016-08-07T05:39:39.956Z,50
2016-08-07T05:40:39.235Z,50
2016-08-07T05:41:39.922Z,55
2016-08-07T05:42:40.622Z,55
2016-08-07T05:43:39.239Z,55
2016-08-07T05:44:40.600Z,55
2016-08-07T05:45:39.889Z,55
2016-08-07T05:46:41.357Z,55
2016-08-07T05:47:39.198Z,55
2016-08-07T05:48:39.144Z,55
2016-08-07T05:49:40.554Z,55
2016-08-07T05:50:39.858Z,55
2016-08-07T05:51:40.533Z,55
2016-08-07T05:52:39.800Z,55
2016-08-07T05:53:39.090Z,55
2016-08-07T05:54:39.074Z,55
2016-08-07T05:55:39.773Z,60
2016-08-07T05:56:39.898Z,60
2016-08-07T05:57:41.890Z,60
2016-08-07T05:58:39.036Z,60
2016-08-07T05:59:40.449Z,60
2016-08-07T06:00:39.007Z,60
2016-08-07T06:01:38.998Z,60
2016-08-07T06:02:40.405Z,60
2016-08-07T06:03:39.682Z,60
2016-08-07T06:04:39.694Z,60
2016-08-07T06:05:38.960Z,60
2016-08-07T06:06:39.749Z,60
2016-08-07T06:07:40.386Z,60
2016-08-07T06:08:40.339Z,60
2016-08-07T06:09:40.402Z,60
2016-08-07T06:10:39.610Z,60
2016-08-07T06:11:41.716Z,60
2016-08-07T06:12:41.244Z,60
2016-08-07T06:13:40.289Z,60
2016-08-07T06:14:39.617Z,65
2016-08-07T06:15:38.851Z,65
2016-08-07T06:16:40.312Z,65
2016-08-07T06:17:39.538Z,65
2016-08-07T06:18:39.533Z,65
2016-08-07T06:19:40.216Z,65
2016-08-07T06:20:38.800Z,65
2016-08-07T06:21:40.206Z,65
2016-08-07T06:22:39.492Z,65
2016-08-07T06:23:40.175Z,70
2016-08-07T06:24:40.215Z,70
2016-08-07T06:25:39.501Z,70
2016-08-07T06:26:40.855Z,70
2016-08-07T06:27:39.435Z,70
2016-08-07T06:28:38.748Z,70
2016-08-07T06:29:39.414Z,70
2016-08-07T06:30:40.817Z,70
2016-08-07T06:31:39.389Z,70
2016-08-07T06:32:40.101Z,70
2016-08-07T06:33:39.414Z,70
2016-08-07T06:34:42.969Z,70
2016-08-07T06:35:38.633Z,70
2016-08-07T06:36:40.102Z,70
2016-08-07T06:37:38.614Z,70
2016-08-07T06:38:40.015Z,70
2016-08-07T06:39:40.721Z,70
2016-08-07T06:40:39.293Z,70
2016-08-07T06:41:39.293Z,70
2016-08-07T06:42:40.079Z,70
2016-08-07T06:43:39.269Z,70
2016-08-07T06:44:39.259Z,70
2016-08-07T06:45:39.946Z,70
2016-08-07T06:46:40.589Z,75
2016-08-07T06:47:39.223Z,75
2016-08-07T06:48:38.510Z,75
2016-08-07T06:49:39.901Z,75
2016-08-07T06:50:40.600Z,80
2016-08-07T06:51:39.882Z,80
2016-08-07T06:52:39.153Z,80
2016-08-07T06:53:41.709Z,80
2016-08-07T06:54:38.446Z,85
2016-08-07T06:55:38.441Z,85
2016-08-07T06:56:39.836Z,85
2016-08-07T06:57:39.877Z,85
2016-08-07T06:58:39.822Z,80
2016-08-07T06:59:40.516Z,80
2016-08-07T07:00:39.808Z,80
2016-08-07T07:01:39.988Z,85
2016-08-07T07:02:38.375Z,90
2016-08-07T07:03:39.784Z,100
2016-08-07T07:04:39.756Z,110
2016-08-07T07:05:38.337Z,130
2016-08-07T07:06:40.498Z,140
2016-08-07T07:07:38.284Z,145
2016-08-07T07:08:39.720Z,150
2016-08-07T07:09:39.906Z,165
2016-08-07T07:10:38.989Z,195
2016-08-07T07:11:40.390Z,220
2016-08-07T07:12:38.965Z,220
2016-08-07T07:13:39.673Z,210
2016-08-07T07:14:38.248Z,195
2016-08-07T07:15:38.231Z,185
2016-08-07T07:16:38.233Z,180
2016-08-07T07:17:38.219Z,175
2016-08-07T07:18:40.333Z,175
2016-08-07T07:19:39.614Z,180
2016-08-07T07:20:38.897Z,195
2016-08-07T07:21:40.314Z,215
2016-08-07T07:23:38.878Z,210
2016-08-07T07:24:38.878Z,195
2016-08-07T07:25:39.560Z,180
2016-08-07T07:26:39.552Z,170
2016-08-07T07:27:39.553Z,160
2016-08-07T07:28:40.261Z,165
2016-08-07T07:29:42.921Z,165
2016-08-07T07:30:40.230Z,175
2016-08-07T07:31:38.100Z,195
2016-08-07T07:32:38.087Z,230
2016-08-07T07:33:39.493Z,250
2016-08-07T07:34:39.491Z,260
2016-08-07T07:35:38.776Z,245
2016-08-07T07:36:38.756Z,220
2016-08-07T07:38:39.448Z,195
2016-08-07T07:39:38.033Z,200
2016-08-07T07:40:38.022Z,190
2016-08-07T07:41:38.798Z,165
2016-08-07T07:42:39.418Z,165
2016-08-07T07:43:39.406Z,175
2016-08-07T07:44:38.695Z,175
2016-08-07T07:45:37.987Z,180
2016-08-07T07:46:37.967Z,175
2016-08-07T07:47:38.668Z,170
2016-08-07T08:02:34.404Z,255
2016-08-07T08:03:34.381Z,260
2016-08-07T08:04:33.677Z,250
2016-08-07T08:05:34.396Z,255
2016-08-07T08:06:34.367Z,255
2016-08-07T08:07:33.650Z,235
2016-08-07T08:08:33.645Z,245
2016-08-07T08:09:33.639Z,255
2016-08-07T08:10:32.926Z,290
2016-08-07T08:11:33.622Z,295
2016-08-07T08:12:33.663Z,340
2016-08-07T08:13:33.595Z,330
2016-08-07T08:14:33.641Z,330
2016-08-07T08:15:32.941Z,325
2016-08-07T08:16:33.579Z,295
2016-08-07T08:17:33.568Z,310
2016-08-07T08:18:32.849Z,445
2016-08-07T08:19:33.553Z,420
2016-08-07T08:20:33.543Z,530
2016-08-07T08:21:34.295Z,435
2016-08-07T08:22:34.251Z,1615
2016-08-07T08:23:33.531Z,1585
2016-08-07T08:24:34.962Z,1570
2016-08-07T08:25:33.518Z,1265
2016-08-07T08:26:33.507Z,1515
2016-08-07T08:27:32.792Z,1605
2016-08-07T08:28:34.232Z,1640
2016-08-07T08:29:34.926Z,1510
2016-08-07T08:30:34.196Z,655
2016-08-07T08:31:34.412Z,700
2016-08-07T08:32:34.197Z,545
2016-08-07T08:33:33.493Z,560
2016-08-07T08:34:34.891Z,540
2016-08-07T08:35:32.866Z,520
2016-08-07T08:36:32.797Z,410
2016-08-07T08:37:34.907Z,385
2016-08-07T08:38:32.732Z,345
2016-08-07T08:39:34.852Z,365
2016-08-07T08:40:34.136Z,345
2016-08-07T08:41:34.125Z,375
2016-08-07T08:42:33.425Z,405
2016-08-07T08:43:34.111Z,1150
2016-08-07T08:44:34.109Z,395
2016-08-07T08:45:34.155Z,300
2016-08-07T08:46:33.391Z,455
2016-08-07T08:47:34.810Z,330
2016-08-07T08:48:34.098Z,410
2016-08-07T08:49:34.798Z,425
2016-08-07T08:50:33.375Z,530
2016-08-07T08:51:32.662Z,1060
2016-08-07T08:52:32.651Z,445
2016-08-07T08:53:33.346Z,435
2016-08-07T08:54:33.342Z,410
2016-08-07T08:55:33.357Z,430
2016-08-07T08:56:33.380Z,435
2016-08-07T08:57:34.035Z,420
2016-08-07T08:58:32.743Z,465
2016-08-07T08:59:33.314Z,450
2016-08-07T09:00:34.011Z,455
2016-08-07T09:01:34.213Z,400
2016-08-07T09:02:33.295Z,375
2016-08-07T09:03:32.579Z,355
2016-08-07T09:04:33.284Z,350
2016-08-07T09:05:33.276Z,355
2016-08-07T09:06:33.978Z,345
2016-08-07T09:07:33.267Z,360
2016-08-07T09:08:34.691Z,380
2016-08-07T09:09:33.971Z,405
2016-08-07T09:10:33.965Z,420
2016-08-07T09:11:33.450Z,405
2016-08-07T09:12:33.953Z,405
2016-08-07T09:13:32.582Z,365
2016-08-07T09:14:32.533Z,335
2016-08-07T09:15:33.930Z,295
2016-08-07T09:16:33.947Z,255
2016-08-07T09:17:32.503Z,240
2016-08-07T09:18:33.903Z,245
2016-08-07T09:19:33.187Z,290
2016-08-07T09:20:33.959Z,245
2016-08-07T09:21:33.202Z,165
2016-08-07T09:22:33.179Z,155
2016-08-07T09:23:33.226Z,165
2016-08-07T09:24:33.881Z,165
2016-08-07T09:25:32.453Z,190
2016-08-07T09:26:33.199Z,210
2016-08-07T09:27:33.146Z,220
2016-08-07T09:28:35.256Z,220
2016-08-07T09:29:34.605Z,255
2016-08-07T09:30:33.831Z,245
2016-08-07T09:31:33.821Z,220
2016-08-07T09:32:33.837Z,165
2016-08-07T09:33:33.901Z,150
2016-08-07T09:34:32.406Z,135
2016-08-07T09:35:33.818Z,135
2016-08-07T09:36:32.394Z,135
2016-08-07T09:37:33.092Z,135
2016-08-07T09:39:33.113Z,135
2016-08-07T09:40:33.064Z,135
2016-08-07T09:41:33.069Z,135
2016-08-07T09:42:33.747Z,145
2016-08-07T09:43:33.051Z,155
2016-08-07T09:44:32.327Z,170
2016-08-07T09:45:33.027Z,205
2016-08-07T09:46:33.731Z,245
2016-08-07T09:47:33.712Z,225
2016-08-07T09:48:33.717Z,240
2016-08-07T09:49:32.352Z,290
2016-08-07T09:50:33.703Z,385
2016-08-07T09:51:32.995Z,465
2016-08-07T09:52:32.982Z,445
2016-08-07T09:53:32.261Z,435
2016-08-07T09:54:34.440Z,470
2016-08-07T09:55:33.672Z,460
2016-08-07T09:56:32.960Z,445
2016-08-07T09:57:32.240Z,395
2016-08-07T09:58:34.349Z,345
2016-08-07T09:59:32.231Z,305
2016-08-07T10:00:32.974Z,290
2016-08-07T10:01:34.337Z,295
2016-08-07T10:02:32.988Z,260
2016-08-07T10:03:32.943Z,315
2016-08-07T10:04:32.199Z,190
2016-08-07T10:05:33.633Z,400
2016-08-07T10:06:32.181Z,565
2016-08-07T10:07:34.311Z,340
2016-08-07T10:08:32.932Z,805
2016-08-07T10:09:32.877Z,555
2016-08-07T10:10:32.173Z,705
2016-08-07T10:11:32.168Z,830
2016-08-07T10:12:33.620Z,1080
2016-08-07T10:13:32.848Z,910
2016-08-07T10:14:33.549Z,1000
2016-08-07T10:15:32.132Z,610
2016-08-07T10:16:33.555Z,685
2016-08-07T10:17:33.562Z,690
2016-08-07T10:18:33.576Z,540
2016-08-07T10:19:33.586Z,1005
2016-08-07T10:20:33.047Z,1045
2016-08-07T10:21:33.734Z,750
2016-08-07T10:22:32.100Z,245
2016-08-07T10:23:32.067Z,420
2016-08-07T10:24:33.505Z,235
2016-08-07T10:25:32.805Z,220
2016-08-07T10:26:32.073Z,640
2016-08-07T10:27:32.075Z,370
2016-08-07T10:28:33.477Z,460
2016-08-07T10:29:32.076Z,615
2016-08-07T10:30:34.184Z,1910
2016-08-07T10:31:32.760Z,675
2016-08-07T10:32:34.165Z,650
2016-08-07T10:33:33.461Z,1895
2016-08-07T10:34:34.863Z,2105
2016-08-07T10:35:32.740Z,1120
2016-08-07T10:36:32.756Z,1740
2016-08-07T10:37:33.442Z,1005
2016-08-07T10:39:33.429Z,1995
2016-08-07T10:40:33.440Z,1860
2016-08-07T10:41:32.734Z,1685
2016-08-07T10:42:34.134Z,2190
2016-08-07T10:43:34.129Z,2215
2016-08-07T10:44:32.015Z,2140
2016-08-07T10:45:32.006Z,2265
2016-08-07T10:46:32.715Z,2330
2016-08-07T10:47:33.426Z,2295
2016-08-07T10:48:33.469Z,2265
2016-08-07T10:49:32.716Z,2160
2016-08-07T10:50:32.016Z,2075
2016-08-07T10:51:32.713Z,2255
2016-08-07T10:52:33.416Z,2250
2016-08-07T10:54:33.446Z,2260
2016-08-07T10:55:33.416Z,2030
2016-08-07T10:56:33.473Z,2180
2016-08-07T10:57:34.234Z,2220
2016-08-07T10:58:32.717Z,2145
2016-08-07T10:59:34.128Z,2195
2016-08-07T11:00:34.128Z,1650
2016-08-07T11:01:32.678Z,2070
2016-08-07T11:02:33.428Z,2020
2016-08-07T11:03:33.428Z,2240
2016-08-07T11:04:32.709Z,1470
2016-08-07T11:05:33.422Z,1000
2016-08-07T11:06:33.419Z,2035
2016-08-07T11:07:32.722Z,2015
2016-08-07T11:09:32.723Z,1995
2016-08-07T11:10:32.722Z,2160
2016-08-07T11:11:32.730Z,1850
2016-08-07T11:12:32.013Z,1885
2016-08-07T11:13:34.854Z,1975
2016-08-07T11:14:32.738Z,1730
2016-08-07T11:15:33.438Z,1505
2016-08-07T11:16:33.436Z,1910
2016-08-07T11:17:33.438Z,2045
2016-08-07T11:18:32.734Z,2030
2016-08-07T11:19:32.751Z,2120
2016-08-07T11:20:32.785Z,2115
2016-08-07T11:21:32.740Z,2060
2016-08-07T11:22:32.740Z,2065
2016-08-07T11:24:34.151Z,1840
2016-08-07T11:25:34.157Z,1870
2016-08-07T11:26:33.447Z,1670
2016-08-07T11:27:32.051Z,1985
2016-08-07T11:28:32.810Z,1825
2016-08-07T11:29:32.047Z,1630
2016-08-07T11:30:32.068Z,1775
2016-08-07T11:31:32.039Z,1580
2016-08-07T11:32:33.457Z,1645
2016-08-07T11:33:33.470Z,1715
2016-08-07T11:34:32.754Z,1465
2016-08-07T11:35:32.804Z,1680
2016-08-07T11:36:32.060Z,1995
2016-08-07T11:37:32.762Z,1875
2016-08-07T11:38:32.050Z,1830
2016-08-07T11:39:32.052Z,2060
2016-08-07T11:40:32.065Z,2110
2016-08-07T11:41:34.178Z,2150
2016-08-07T11:42:34.182Z,2170
2016-08-07T11:43:32.759Z,1550
2016-08-07T11:44:32.777Z,2220
2016-08-07T11:45:34.899Z,2215
2016-08-07T11:46:32.060Z,2190
2016-08-07T11:47:32.077Z,2205
2016-08-07T11:48:32.088Z,2185
2016-08-07T11:49:33.537Z,1825
2016-08-07T11:50:32.795Z,1885
2016-08-07T11:51:32.078Z,1970
2016-08-07T11:52:34.900Z,2095
2016-08-07T11:53:34.201Z,2185
2016-08-07T11:54:34.223Z,2175
2016-08-07T11:55:32.790Z,2175
2016-08-07T11:56:32.080Z,2160
2016-08-07T11:57:32.078Z,2190
2016-08-07T11:58:33.490Z,2135
2016-08-07T11:59:32.090Z,2150
2016-08-07T12:00:33.515Z,2155
2016-08-07T12:01:33.503Z,2135
2016-08-07T12:02:34.215Z,2115
2016-08-07T12:03:33.516Z,2115
2016-08-07T12:04:33.555Z,2110
2016-08-07T12:05:34.918Z,2120
2016-08-07T12:06:33.518Z,2165
2016-08-07T12:07:32.839Z,2165
2016-08-07T12:08:32.870Z,2180
2016-08-07T12:09:34.227Z,2190
2016-08-07T12:10:33.515Z,2160
2016-08-07T12:11:33.523Z,2160
2016-08-07T12:12:32.829Z,2165
2016-08-07T12:13:32.896Z,2205
2016-08-07T12:14:34.240Z,2185
2016-08-07T12:15:33.542Z,1215
2016-08-07T12:16:33.035Z,2115
2016-08-07T12:17:34.238Z,2040
2016-08-07T12:18:32.846Z,2050
2016-08-07T12:19:33.553Z,2045
2016-08-07T12:20:34.252Z,2100
2016-08-07T12:21:33.608Z,2125
2016-08-07T12:22:33.556Z,2110
2016-08-07T12:23:32.862Z,2065
2016-08-07T12:24:34.272Z,2050
2016-08-07T12:25:32.870Z,2045
2016-08-07T12:26:32.161Z,2065
2016-08-07T12:27:32.863Z,2050
2016-08-07T12:28:32.191Z,2055
2016-08-07T12:29:32.870Z,2065
2016-08-07T12:30:32.210Z,2090
2016-08-07T12:31:33.587Z,2095
2016-08-07T12:32:32.165Z,2095
2016-08-07T12:33:32.902Z,2035
2016-08-07T12:34:33.644Z,2090
2016-08-07T12:35:32.180Z,2160
2016-08-07T12:36:32.882Z,2210
2016-08-07T12:37:33.595Z,2225
2016-08-07T12:38:33.608Z,2175
2016-08-07T12:39:32.894Z,2075
2016-08-07T12:40:33.616Z,2020
2016-08-07T12:41:33.607Z,1945
2016-08-07T12:42:32.905Z,1745
2016-08-07T12:43:32.916Z,1630
2016-08-07T12:44:32.211Z,1395
2016-08-07T12:45:33.626Z,1595
2016-08-07T12:46:32.213Z,2080
2016-08-07T12:47:33.635Z,2120
2016-08-07T12:48:33.645Z,2110
2016-08-07T12:49:32.215Z,2105
2016-08-07T12:50:32.929Z,2085
2016-08-07T12:51:32.222Z,2090
2016-08-07T12:52:33.711Z,2100
2016-08-07T12:53:32.937Z,2135
2016-08-07T12:54:32.990Z,2015
2016-08-07T12:55:33.673Z,2155
2016-08-07T12:56:34.367Z,2125
2016-08-07T12:57:32.261Z,1520
2016-08-07T12:58:32.958Z,2060
2016-08-07T12:59:34.395Z,2050
2016-08-07T13:00:33.719Z,2045
2016-08-07T13:01:32.963Z,2055
2016-08-07T13:02:32.987Z,1970
2016-08-07T13:03:35.092Z,1930
2016-08-07T13:04:33.680Z,1830
2016-08-07T13:05:32.275Z,1800
2016-08-07T13:06:32.980Z,1700
2016-08-07T13:07:34.424Z,1855
2016-08-07T13:08:33.699Z,1790
2016-08-07T13:09:35.141Z,1990
2016-08-07T13:10:33.713Z,1930
2016-08-07T13:11:32.296Z,1905
2016-08-07T13:12:35.144Z,1880
2016-08-07T13:13:32.303Z,2065
2016-08-07T13:14:33.725Z,2000
2016-08-07T13:15:33.029Z,2040
2016-08-07T13:16:33.072Z,2050
2016-08-07T13:17:33.767Z,2080
2016-08-07T13:18:33.063Z,2055
2016-08-07T13:19:33.053Z,2040
2016-08-07T13:20:33.020Z,1930
2016-08-07T13:21:32.333Z,1770
2016-08-07T13:22:32.322Z,1715
2016-08-07T13:23:32.334Z,1720
2016-08-07T13:24:33.030Z,2040
2016-08-07T13:25:33.048Z,2055
2016-08-07T13:26:33.049Z,2030
2016-08-07T13:27:34.642Z,1995
2016-08-07T13:28:35.318Z,1975
2016-08-07T13:29:32.361Z,1910
2016-08-07T13:30:32.362Z,1970
2016-08-07T13:31:33.777Z,1980
2016-08-07T13:32:33.338Z,1955
2016-08-07T13:33:34.488Z,1730
2016-08-07T13:34:34.473Z,1660
2016-08-07T13:35:33.093Z,1650
2016-08-07T13:36:33.114Z,1440
2016-08-07T13:37:33.870Z,1645
2016-08-07T13:38:35.246Z,1775
2016-08-07T13:39:32.464Z,1870
2016-08-07T13:40:33.846Z,1740
2016-08-07T13:41:33.133Z,1825
2016-08-07T13:42:33.092Z,1815
2016-08-07T13:43:33.142Z,1810
2016-08-07T13:44:34.529Z,1415
2016-08-07T13:45:33.201Z,1420
2016-08-07T13:46:33.174Z,1860
2016-08-07T13:47:33.834Z,1300
2016-08-07T13:48:32.410Z,1730
2016-08-07T13:49:34.559Z,1775
2016-08-07T13:50:33.836Z,1850
2016-08-07T13:51:33.135Z,1365
2016-08-07T13:52:33.847Z,1615
2016-08-07T13:53:32.562Z,1625
2016-08-07T13:54:32.415Z,1440
2016-08-07T13:55:33.840Z,1590
2016-08-07T13:56:33.144Z,1460
2016-08-07T13:57:33.845Z,1725
2016-08-07T13:58:32.429Z,1540
2016-08-07T13:59:33.908Z,1880
2016-08-07T14:00:33.170Z,1915
2016-08-07T14:01:32.543Z,1770
2016-08-07T14:02:32.510Z,1635
2016-08-07T14:03:33.973Z,1650
2016-08-07T14:04:33.922Z,1700
2016-08-07T14:05:34.577Z,1675
2016-08-07T14:06:33.866Z,1705
2016-08-07T14:07:33.165Z,1700
2016-08-07T14:08:33.868Z,1620
2016-08-07T14:09:32.473Z,1570
2016-08-07T14:10:34.568Z,560
2016-08-07T14:11:33.182Z,1545
2016-08-07T14:12:34.595Z,1610
2016-08-07T14:13:32.498Z,1605
2016-08-07T14:14:32.506Z,1655
2016-08-07T14:15:33.907Z,1700
2016-08-07T14:16:33.190Z,1740
2016-08-07T14:17:33.905Z,620
2016-08-07T14:18:33.907Z,835
2016-08-07T14:19:33.898Z,1690
2016-08-07T14:20:33.891Z,1680
2016-08-07T14:21:33.192Z,1655
2016-08-07T14:22:33.202Z,1630
2016-08-07T14:23:32.501Z,1635
2016-08-07T14:25:33.205Z,1570